Time;durP1;ratioP1;P1;durP2;ratioP2;P2;SDS_P1;SDS_P2;PMS_P1;PMS_P2;Temp;Humidity;BMP_temperature;BMP_pressure;BME280_temperature;BME280_humidity;BME280_pressure;Samples;Min_cycle;Max_cycle;Signal;HPM_P1;HPM_P2
2023/07/27 00:02:14;;;;;;;13.03;11.63;;;20.30;99.90;;;;;;4974885;28;20508;-85
2023/07/27 00:04:41;;;;;;;18.33;15.27;;;20.30;99.90;;;;;;4970858;28;20468;-82
2023/07/27 00:07:08;;;;;;;15.47;13.70;;;20.20;99.90;;;;;;4967243;28;20870;-87
2023/07/27 00:09:35;;;;;;;17.37;14.80;;;20.20;99.90;;;;;;4967627;28;20524;-87
2023/07/27 00:12:03;;;;;;;18.13;14.93;;;20.20;99.90;;;;;;4974890;28;20479;-86
2023/07/27 00:14:30;;;;;;;22.90;20.13;;;20.10;99.90;;;;;;4974301;28;20980;-83
2023/07/27 00:16:59;;;;;;;31.90;26.73;;;20.10;99.90;;;;;;4974576;28;20506;-82
2023/07/27 00:19:26;;;;;;;31.20;27.83;;;20.10;99.90;;;;;;4970243;28;21033;-86
2023/07/27 00:21:53;;;;;;;30.37;25.30;;;20.10;99.90;;;;;;4968803;28;20518;-87
2023/07/27 00:24:20;;;;;;;33.30;29.60;;;20.10;99.90;;;;;;4975023;28;20478;-87
2023/07/27 00:26:47;;;;;;;28.70;24.10;;;20.00;99.90;;;;;;4995952;28;20473;-86
2023/07/27 00:29:14;;;;;;;19.93;16.03;;;20.00;99.90;;;;;;4993462;28;21014;-83
2023/07/27 00:31:41;;;;;;;16.63;14.93;;;19.90;99.90;;;;;;4997940;28;20470;-83
2023/07/27 00:34:09;;;;;;;12.47;11.17;;;19.90;99.90;;;;;;4996247;28;20494;-83
2023/07/27 00:36:36;;;;;;;21.53;19.23;;;19.90;99.90;;;;;;4998814;28;20486;-83
2023/07/27 00:39:03;;;;;;;16.73;14.53;;;19.80;99.90;;;;;;4995367;28;21385;-86
2023/07/27 00:41:30;;;;;;;21.40;18.57;;;19.80;99.90;;;;;;4994831;28;20474;-84
2023/07/27 00:44:01;;;;;;;35.23;29.80;;;19.80;99.90;;;;;;4995523;28;20494;-85
2023/07/27 00:46:31;;;;;;;50.50;40.33;;;19.80;99.90;;;;;;4995833;28;20991;-84
2023/07/27 00:48:58;;;;;;;11.63;10.27;;;19.80;99.90;;;;;;4995937;28;20927;-88
2023/07/27 00:51:27;;;;;;;29.30;26.20;;;19.80;99.90;;;;;;4997294;28;20519;-87
2023/07/27 00:53:54;;;;;;;34.93;30.30;;;19.80;99.90;;;;;;4996459;28;20466;-87
2023/07/27 00:56:22;;;;;;;29.80;26.67;;;19.70;99.90;;;;;;4998068;28;20478;-87
2023/07/27 00:58:52;;;;;;;32.33;27.33;;;19.80;99.90;;;;;;4998055;28;20485;-87
2023/07/27 01:01:20;;;;;;;18.80;16.87;;;19.70;99.90;;;;;;5002801;28;20501;-87
2023/07/27 01:03:47;;;;;;;22.57;20.27;;;19.80;99.90;;;;;;4999055;28;20880;-87
2023/07/27 01:06:15;;;;;;;26.00;22.57;;;19.70;99.90;;;;;;4999431;28;20549;-84
2023/07/27 01:08:44;;;;;;;19.50;17.63;;;19.70;99.90;;;;;;4995574;28;20473;-84
2023/07/27 01:11:20;;;;;;;19.50;17.07;;;19.60;99.90;;;;;;4996607;28;20470;-84
2023/07/27 01:13:55;;;;;;;14.77;13.17;;;19.60;99.90;;;;;;4996254;28;20469;-87
2023/07/27 01:16:37;;;;;;;17.23;13.93;;;19.60;99.90;;;;;;4994867;28;20462;-84
2023/07/27 01:19:15;;;;;;;20.53;18.37;;;19.50;99.90;;;;;;4995424;28;20552;-83
2023/07/27 01:21:49;;;;;;;22.17;18.67;;;19.50;99.90;;;;;;4995597;28;20512;-86
2023/07/27 01:24:43;;;;;;;14.67;13.17;;;19.40;99.90;;;;;;4993885;28;20477;-87
2023/07/27 01:27:21;;;;;;;15.53;13.23;;;19.40;99.90;;;;;;4986731;28;20520;-84
2023/07/27 01:30:19;;;;;;;12.57;11.23;;;19.40;99.90;;;;;;4993540;28;20963;-88
2023/07/27 01:32:53;;;;;;;9.23;8.30;;;19.40;99.90;;;;;;4981177;28;20566;-85
2023/07/27 01:35:25;;;;;;;9.13;8.23;;;19.40;99.90;;;;;;4982577;28;20560;-84
2023/07/27 01:37:54;;;;;;;10.30;7.10;;;19.40;99.90;;;;;;4992011;28;20470;-84
2023/07/27 01:40:24;;;;;;;8.07;7.30;;;19.40;99.90;;;;;;4993304;28;20537;-84
2023/07/27 01:42:52;;;;;;;9.30;7.70;;;19.30;99.90;;;;;;4990913;28;20508;-84
2023/07/27 01:45:20;;;;;;;6.90;6.30;;;19.40;99.90;;;;;;4993207;28;20486;-84
2023/07/27 01:47:51;;;;;;;4.70;4.30;;;19.40;99.90;;;;;;4992864;28;20470;-84
2023/07/27 01:50:19;;;;;;;4.23;3.90;;;19.40;99.90;;;;;;4991591;28;20478;-87
2023/07/27 01:52:48;;;;;;;7.17;5.50;;;19.40;99.90;;;;;;4990033;28;20995;-85
2023/07/27 01:55:16;;;;;;;4.43;4.03;;;19.30;99.90;;;;;;4991025;28;20482;-87
2023/07/27 01:57:44;;;;;;;7.10;6.40;;;19.20;99.90;;;;;;4990128;28;20473;-84
2023/07/27 02:00:16;;;;;;;8.70;7.83;;;19.20;99.90;;;;;;4993828;28;20557;-84
2023/07/27 02:02:45;;;;;;;18.23;15.10;;;19.20;99.90;;;;;;4991453;28;20467;-84
2023/07/27 02:05:16;;;;;;;14.77;12.33;;;19.10;99.90;;;;;;4994056;28;20982;-87
2023/07/27 02:07:43;;;;;;;25.33;20.93;;;19.00;99.90;;;;;;4991364;28;20467;-85
2023/07/27 02:10:14;;;;;;;20.53;17.50;;;19.00;99.90;;;;;;4991859;28;20545;-84
2023/07/27 02:12:45;;;;;;;28.60;24.03;;;19.00;99.90;;;;;;4989020;28;20884;-84
2023/07/27 02:15:16;;;;;;;38.33;31.70;;;19.00;99.90;;;;;;4991403;28;20466;-84
2023/07/27 02:17:49;;;;;;;43.37;38.60;;;19.00;99.90;;;;;;4991023;28;20473;-85
2023/07/27 02:20:21;;;;;;;42.37;36.53;;;19.00;99.90;;;;;;4992355;28;20469;-84
2023/07/27 02:22:49;;;;;;;18.47;15.57;;;19.00;99.90;;;;;;4991159;28;21253;-85
2023/07/27 02:25:16;;;;;;;19.10;15.50;;;19.00;99.90;;;;;;4968539;28;20483;-84
2023/07/27 02:27:44;;;;;;;34.93;28.83;;;19.00;99.90;;;;;;4972666;28;20542;-87
2023/07/27 02:30:11;;;;;;;27.93;23.60;;;19.00;99.90;;;;;;4973796;28;20470;-87
2023/07/27 02:32:40;;;;;;;25.00;22.30;;;19.00;99.90;;;;;;4973450;28;20739;-87
2023/07/27 02:35:08;;;;;;;22.77;19.53;;;19.00;99.90;;;;;;4973644;28;20469;-87
2023/07/27 02:37:36;;;;;;;6.23;5.70;;;19.00;99.90;;;;;;4973487;28;20549;-85
2023/07/27 02:40:09;;;;;;;19.80;15.93;;;19.10;99.90;;;;;;4973215;28;20479;-85
2023/07/27 02:42:47;;;;;;;15.23;12.37;;;19.10;99.90;;;;;;4973550;28;20471;-85
2023/07/27 02:45:14;;;;;;;14.40;12.63;;;19.20;99.90;;;;;;4946468;28;20477;-88
2023/07/27 02:47:41;;;;;;;8.93;8.10;;;19.20;99.90;;;;;;4973563;28;20471;-84
2023/07/27 02:50:09;;;;;;;10.67;9.67;;;19.20;99.90;;;;;;4972921;28;20467;-85
2023/07/27 02:52:37;;;;;;;7.80;7.10;;;19.20;99.90;;;;;;4972496;28;20463;-87
2023/07/27 02:55:04;;;;;;;6.47;5.97;;;19.20;99.90;;;;;;4973582;28;20918;-84
2023/07/27 02:57:32;;;;;;;6.67;6.07;;;19.20;99.90;;;;;;4974076;28;20477;-84
2023/07/27 02:59:59;;;;;;;6.73;6.13;;;19.20;99.90;;;;;;4972920;28;20550;-87
2023/07/27 03:02:26;;;;;;;5.90;5.37;;;19.20;99.90;;;;;;4974617;28;20471;-84
2023/07/27 03:04:53;;;;;;;2.90;2.60;;;19.20;99.90;;;;;;4973453;28;20783;-85
2023/07/27 03:07:20;;;;;;;3.60;2.67;;;19.20;99.90;;;;;;4973097;28;20608;-85
2023/07/27 03:09:52;;;;;;;5.80;5.20;;;19.10;99.90;;;;;;4973145;28;20467;-87
2023/07/27 03:12:19;;;;;;;5.00;4.60;;;19.00;99.90;;;;;;4972285;28;20503;-84
2023/07/27 03:14:46;;;;;;;5.47;4.30;;;19.00;99.90;;;;;;4973340;28;20549;-87
2023/07/27 03:17:13;;;;;;;5.53;5.03;;;19.00;99.90;;;;;;4973674;28;20542;-87
2023/07/27 03:19:42;;;;;;;5.30;4.90;;;18.90;99.90;;;;;;4972636;28;20471;-87
2023/07/27 03:22:09;;;;;;;5.60;3.67;;;18.90;99.90;;;;;;4972200;28;20482;-85
2023/07/27 03:24:38;;;;;;;4.13;3.07;;;18.90;99.90;;;;;;4979726;28;20554;-84
2023/07/27 03:27:06;;;;;;;6.60;5.47;;;18.90;99.90;;;;;;4991325;28;20478;-87
2023/07/27 03:29:34;;;;;;;6.07;5.50;;;18.80;99.90;;;;;;4992993;28;20561;-87
2023/07/27 03:32:01;;;;;;;6.50;5.93;;;18.70;99.90;;;;;;4992831;28;20466;-87
2023/07/27 03:34:28;;;;;;;5.73;5.23;;;18.70;99.90;;;;;;5212720;23;20484;-85
2023/07/27 03:36:55;;;;;;;4.20;3.70;;;18.80;99.90;;;;;;4982584;28;20958;-85
2023/07/27 03:39:22;;;;;;;4.50;4.10;;;18.80;99.90;;;;;;4983918;28;20534;-87
2023/07/27 03:41:49;;;;;;;3.90;3.57;;;18.80;99.90;;;;;;4983157;28;20501;-85
2023/07/27 03:44:17;;;;;;;4.07;3.67;;;18.80;99.90;;;;;;4982726;28;20506;-84
2023/07/27 03:46:44;;;;;;;5.50;4.77;;;18.80;99.90;;;;;;4981403;28;20970;-85
2023/07/27 03:49:14;;;;;;;9.43;8.23;;;18.80;99.90;;;;;;4982691;28;20548;-84
2023/07/27 03:51:41;;;;;;;6.60;5.97;;;18.80;99.90;;;;;;4982162;28;20558;-84
2023/07/27 03:54:14;;;;;;;7.13;6.50;;;18.80;99.90;;;;;;4982519;28;20570;-85
2023/07/27 03:56:43;;;;;;;8.37;7.10;;;18.80;99.90;;;;;;4974430;28;20491;-84
2023/07/27 03:59:10;;;;;;;8.43;7.40;;;18.80;99.90;;;;;;4982580;28;20490;-87
2023/07/27 04:01:39;;;;;;;7.50;6.90;;;18.80;99.90;;;;;;4982668;28;20510;-84
2023/07/27 04:04:05;;;;;;;6.90;6.20;;;18.80;99.90;;;;;;4981203;28;20474;-88
2023/07/27 04:06:32;;;;;;;6.03;5.07;;;18.90;99.90;;;;;;4982549;28;20466;-87
2023/07/27 04:08:59;;;;;;;6.97;6.27;;;18.90;99.90;;;;;;4980203;28;20482;-87
2023/07/27 04:11:32;;;;;;;4.10;3.80;;;18.80;99.90;;;;;;4982416;28;20561;-88
2023/07/27 04:13:59;;;;;;;5.40;4.90;;;18.80;99.90;;;;;;4980549;28;20478;-88
2023/07/27 04:16:26;;;;;;;4.67;4.27;;;18.80;99.90;;;;;;4982128;28;20462;-87
2023/07/27 04:18:54;;;;;;;5.07;3.93;;;18.70;99.90;;;;;;4981681;28;20498;-85
2023/07/27 04:21:23;;;;;;;4.53;4.17;;;18.70;99.90;;;;;;4981011;28;20459;-84
2023/07/27 04:23:50;;;;;;;5.83;5.30;;;18.70;99.90;;;;;;4982301;28;20459;-84
2023/07/27 04:26:20;;;;;;;5.33;4.50;;;18.70;99.90;;;;;;4983832;28;20939;-86
2023/07/27 04:28:47;;;;;;;5.40;4.97;;;18.80;99.90;;;;;;4982680;28;20467;-88
2023/07/27 04:31:14;;;;;;;5.40;4.90;;;18.80;99.90;;;;;;4982091;28;20451;-85
2023/07/27 04:33:41;;;;;;;4.60;3.87;;;18.80;99.90;;;;;;4982831;28;20503;-84
2023/07/27 04:36:13;;;;;;;4.13;3.80;;;18.90;99.90;;;;;;4983597;28;20584;-88
2023/07/27 04:38:40;;;;;;;4.70;4.17;;;18.90;99.90;;;;;;4982033;28;20533;-86
2023/07/27 04:41:07;;;;;;;4.30;4.00;;;18.90;99.90;;;;;;4963756;28;20516;-83
2023/07/27 04:43:37;;;;;;;4.20;3.90;;;19.00;99.90;;;;;;4978523;28;20484;-83
2023/07/27 04:46:21;;;;;;;4.67;4.27;;;19.00;99.90;;;;;;4980499;28;20474;-84
2023/07/27 04:48:48;;;;;;;4.20;3.80;;;19.00;99.90;;;;;;4981638;28;20542;-84
2023/07/27 04:51:18;;;;;;;7.77;6.97;;;19.00;99.90;;;;;;4981346;28;20801;-83
2023/07/27 04:53:45;;;;;;;9.80;7.13;;;19.00;99.90;;;;;;4972532;28;20474;-87
2023/07/27 04:56:13;;;;;;;10.23;9.23;;;19.10;99.90;;;;;;4982583;28;20859;-87
2023/07/27 04:58:40;;;;;;;7.10;6.40;;;19.10;99.90;;;;;;4983611;28;20485;-87
2023/07/27 05:01:07;;;;;;;5.03;4.63;;;19.10;99.90;;;;;;4982884;28;20466;-83
2023/07/27 05:03:37;;;;;;;6.10;4.40;;;19.20;99.90;;;;;;4966428;28;20555;-88
2023/07/27 05:06:07;;;;;;;5.27;4.77;;;19.20;99.90;;;;;;4972376;28;20478;-84
2023/07/27 05:08:36;;;;;;;5.60;4.00;;;19.20;99.90;;;;;;4980959;28;20467;-83
2023/07/27 05:11:05;;;;;;;5.03;4.60;;;19.20;99.90;;;;;;4980900;28;20470;-84
2023/07/27 05:13:35;;;;;;;4.83;4.27;;;19.30;99.90;;;;;;4984097;28;20812;-86
2023/07/27 05:16:06;;;;;;;5.80;4.23;;;19.30;99.90;;;;;;4975096;28;20477;-86
2023/07/27 05:19:17;;;;;;;5.23;4.37;;;19.30;99.90;;;;;;4969123;28;20554;-87
2023/07/27 05:21:44;;;;;;;5.10;3.90;;;19.40;99.90;;;;;;4969695;28;20497;-87
2023/07/27 05:24:13;;;;;;;4.60;3.50;;;19.40;99.90;;;;;;4973794;28;20470;-84
2023/07/27 05:26:40;;;;;;;3.97;3.67;;;19.40;99.90;;;;;;4980899;28;20530;-88
2023/07/27 05:29:49;;;;;;;5.30;3.30;;;19.40;99.90;;;;;;4984798;28;20490;-87
2023/07/27 05:32:16;;;;;;;6.10;5.43;;;19.40;99.90;;;;;;4983600;28;20545;-85
2023/07/27 05:34:46;;;;;;;5.67;4.67;;;19.40;99.90;;;;;;4985707;28;20493;-87
2023/07/27 05:37:17;;;;;;;4.70;4.30;;;19.50;99.90;;;;;;4984426;28;20490;-86
2023/07/27 05:39:47;;;;;;;7.50;4.37;;;19.50;99.90;;;;;;4985221;28;20493;-87
2023/07/27 05:42:14;;;;;;;4.33;3.60;;;19.50;99.90;;;;;;4983292;28;21074;-83
2023/07/27 05:44:41;;;;;;;3.63;3.33;;;19.50;99.90;;;;;;4984524;28;20787;-86
2023/07/27 05:50:16;;;;;;;4.17;3.87;;;19.50;99.90;;;;;;4984535;28;20476;-87
2023/07/27 05:52:45;;;;;;;3.80;3.50;;;19.60;99.90;;;;;;4966454;28;20945;-85
2023/07/27 05:55:35;;;;;;;4.70;3.60;;;19.60;99.90;;;;;;4975432;28;20525;-83
2023/07/27 05:58:02;;;;;;;3.57;2.90;;;19.70;99.90;;;;;;4985355;28;20474;-84
2023/07/27 06:00:30;;;;;;;4.33;3.67;;;19.70;99.90;;;;;;4983944;28;20485;-86
2023/07/27 06:03:01;;;;;;;3.20;2.90;;;19.80;99.90;;;;;;4984298;28;20481;-86
2023/07/27 06:05:31;;;;;;;3.40;3.20;;;19.90;99.90;;;;;;4983997;28;20778;-86
2023/07/27 06:08:01;;;;;;;4.23;3.93;;;19.90;99.90;;;;;;4985155;28;20482;-86
2023/07/27 06:10:30;;;;;;;3.80;3.40;;;19.90;99.90;;;;;;4963128;28;20789;-86
2023/07/27 06:16:10;;;;;;;3.43;3.00;;;20.10;99.90;;;;;;4992711;23;20688;-86
2023/07/27 06:18:50;;;;;;;3.83;3.53;;;20.10;99.90;;;;;;4983172;28;20494;-86
2023/07/27 06:21:23;;;;;;;3.90;3.57;;;20.20;99.90;;;;;;4983725;28;20847;-87
2023/07/27 06:23:53;;;;;;;3.67;3.40;;;20.20;99.90;;;;;;4983825;28;20482;-84
2023/07/27 06:29:23;;;;;;;3.40;3.10;;;20.40;99.90;;;;;;4958944;28;20477;-86
2023/07/27 06:31:54;;;;;;;3.80;3.47;;;20.40;99.90;;;;;;4984882;28;20469;-84
2023/07/27 06:34:21;;;;;;;4.30;3.90;;;20.40;99.90;;;;;;4985417;28;21039;-84
2023/07/27 06:36:48;;;;;;;4.97;3.60;;;20.50;99.90;;;;;;4984590;28;20554;-86
2023/07/27 06:39:33;;;;;;;4.47;4.07;;;20.50;99.90;;;;;;4967698;28;20474;-86
2023/07/27 06:42:02;;;;;;;5.10;4.00;;;20.60;99.90;;;;;;4976409;28;20474;-86
2023/07/27 06:44:29;;;;;;;3.80;3.33;;;20.70;99.90;;;;;;4985424;28;20471;-84
2023/07/27 06:46:56;;;;;;;4.50;4.10;;;20.70;99.90;;;;;;4975489;28;20474;-87
2023/07/27 06:49:23;;;;;;;3.43;3.23;;;20.70;99.90;;;;;;4984697;28;20561;-85
2023/07/27 06:51:53;;;;;;;5.43;4.47;;;20.70;99.90;;;;;;4982471;28;20462;-87
2023/07/27 06:54:20;;;;;;;3.63;3.30;;;20.70;99.90;;;;;;4983907;28;20598;-87
2023/07/27 06:56:48;;;;;;;3.87;3.40;;;20.80;99.90;;;;;;4983062;28;20481;-83
2023/07/27 06:59:20;;;;;;;3.10;2.80;;;20.80;99.90;;;;;;4984433;28;20883;-82
2023/07/27 07:01:51;;;;;;;4.43;3.70;;;20.90;99.90;;;;;;4976798;28;20474;-84
2023/07/27 07:04:23;;;;;;;4.73;3.50;;;20.90;99.90;;;;;;4985648;28;20470;-87
2023/07/27 07:06:50;;;;;;;4.60;3.67;;;20.90;99.90;;;;;;4983826;28;20461;-85
2023/07/27 07:09:18;;;;;;;3.80;3.37;;;20.90;99.90;;;;;;4983512;28;20475;-84
2023/07/27 07:11:45;;;;;;;4.07;3.17;;;20.90;99.90;;;;;;4983585;28;21063;-83
2023/07/27 07:14:12;;;;;;;3.80;3.50;;;20.90;99.90;;;;;;4984698;28;20557;-83
2023/07/27 07:16:40;;;;;;;3.73;3.43;;;21.00;99.90;;;;;;4983487;28;20466;-85
2023/07/27 07:19:13;;;;;;;3.90;3.60;;;21.10;99.90;;;;;;4984104;28;20501;-84
2023/07/27 07:21:42;;;;;;;9.73;4.20;;;21.20;99.90;;;;;;4977837;28;20474;-86
2023/07/27 07:24:21;;;;;;;3.40;3.10;;;21.20;99.90;;;;;;4985375;28;20480;-85
2023/07/27 07:27:06;;;;;;;4.13;3.13;;;21.30;99.90;;;;;;4938700;28;20491;-85
2023/07/27 07:30:43;;;;;;;3.77;3.40;;;21.30;99.90;;;;;;4964804;28;20531;-88
2023/07/27 07:36:39;;;;;;;5.30;3.77;;;21.40;99.90;;;;;;4977310;23;20487;-86
2023/07/27 07:39:08;;;;;;;4.30;3.90;;;21.50;99.90;;;;;;4929350;28;20554;-86
2023/07/27 07:41:35;;;;;;;4.17;3.80;;;21.50;99.90;;;;;;4968856;28;20471;-86
2023/07/27 07:47:33;;;;;;;2.93;2.70;;;21.50;99.90;;;;;;4930004;28;20942;-86
2023/07/27 07:50:06;;;;;;;4.60;3.30;;;21.50;99.90;;;;;;4965113;28;20491;-86
2023/07/27 07:52:39;;;;;;;4.20;3.80;;;21.50;99.90;;;;;;4943314;28;20482;-86
2023/07/27 07:55:08;;;;;;;3.70;3.30;;;21.50;99.90;;;;;;4964403;28;20558;-86
2023/07/27 07:58:11;;;;;;;;;;;;;;;;;;;;;
2023/07/27 08:04:18;;;;;;;3.80;3.50;;;21.30;99.90;;;;;;4846888;29;20543;-86
2023/07/27 08:07:25;;;;;;;8.07;4.30;;;21.30;99.90;;;;;;4957184;28;20473;-87
2023/07/27 08:09:52;;;;;;;5.87;4.70;;;21.30;99.90;;;;;;4961347;28;20466;-88
2023/07/27 08:12:20;;;;;;;4.90;4.43;;;21.30;99.90;;;;;;4964849;28;20561;-82
2023/07/27 08:14:49;;;;;;;6.23;3.70;;;21.30;99.90;;;;;;4963844;28;22119;-83
2023/07/27 08:17:16;;;;;;;5.97;5.30;;;21.30;99.90;;;;;;4967011;28;20471;-85
2023/07/27 08:19:43;;;;;;;4.33;3.93;;;21.40;99.90;;;;;;4966033;28;20511;-83
2023/07/27 08:22:14;;;;;;;4.43;4.00;;;21.30;99.90;;;;;;4964608;28;20486;-84
2023/07/27 08:24:44;;;;;;;6.73;3.93;;;21.30;99.90;;;;;;4962934;28;20475;-84
2023/07/27 08:27:11;;;;;;;6.27;4.10;;;21.20;99.90;;;;;;4976042;28;20475;-85
2023/07/27 08:29:39;;;;;;;4.80;4.03;;;21.20;99.90;;;;;;4983392;28;20521;-86
2023/07/27 08:32:07;;;;;;;3.80;3.40;;;21.20;99.90;;;;;;4981815;28;20506;-86
2023/07/27 08:37:51;;;;;;;3.80;3.40;;;21.20;99.90;;;;;;4942578;28;20528;-86
2023/07/27 08:40:24;;;;;;;4.47;3.47;;;21.20;99.90;;;;;;4944282;28;20492;-87
2023/07/27 08:42:51;;;;;;;3.90;3.33;;;21.10;99.90;;;;;;4963798;28;20534;-85
2023/07/27 08:45:25;;;;;;;3.60;3.30;;;21.10;99.90;;;;;;5064727;23;20467;-84
2023/07/27 08:47:54;;;;;;;4.67;3.37;;;21.20;99.90;;;;;;4966162;28;20462;-85
2023/07/27 08:50:31;;;;;;;4.20;3.80;;;21.20;99.90;;;;;;4963376;28;20471;-86
2023/07/27 08:52:58;;;;;;;5.77;3.00;;;21.20;99.90;;;;;;4963320;28;20469;-84
2023/07/27 08:56:07;;;;;;;6.00;4.13;;;21.20;99.90;;;;;;4963273;28;20475;-84
2023/07/27 08:58:38;;;;;;;4.57;3.50;;;21.20;99.90;;;;;;4949248;28;20481;-86
2023/07/27 09:01:12;;;;;;;4.60;3.60;;;21.30;99.90;;;;;;4962952;28;20482;-86
2023/07/27 09:03:46;;;;;;;9.70;4.50;;;21.20;99.90;;;;;;4964852;28;20471;-84
2023/07/27 09:06:13;;;;;;;4.37;3.97;;;21.30;99.90;;;;;;4966996;28;20459;-83
2023/07/27 09:08:41;;;;;;;8.07;4.60;;;21.30;99.90;;;;;;4965509;28;20828;-83
2023/07/27 09:11:10;;;;;;;4.10;3.70;;;21.40;99.90;;;;;;4966688;28;20467;-86
2023/07/27 09:13:39;;;;;;;3.93;3.60;;;21.50;99.90;;;;;;4965370;28;20477;-86
2023/07/27 09:16:08;;;;;;;4.50;4.10;;;21.50;99.90;;;;;;4965629;28;20802;-85
2023/07/27 09:18:36;;;;;;;4.20;3.80;;;21.60;99.90;;;;;;4964817;28;20926;-85
2023/07/27 09:21:44;;;;;;;5.57;3.80;;;21.60;99.90;;;;;;4965853;28;20466;-83
2023/07/27 09:24:12;;;;;;;4.47;3.63;;;21.50;99.90;;;;;;4906381;29;20465;-84
2023/07/27 09:26:47;;;;;;;5.53;3.83;;;21.60;99.90;;;;;;4956923;28;20496;-84
2023/07/27 09:29:15;;;;;;;4.53;3.70;;;21.60;99.90;;;;;;4964257;28;20481;-85
2023/07/27 09:31:51;;;;;;;4.13;3.73;;;21.60;99.90;;;;;;4966137;28;20474;-85
2023/07/27 09:34:21;;;;;;;6.67;4.20;;;21.60;99.90;;;;;;4937821;28;20560;-83
2023/07/27 09:36:49;;;;;;;4.67;3.30;;;21.60;99.90;;;;;;4965208;28;20463;-83
2023/07/27 09:39:16;;;;;;;4.87;3.60;;;21.60;99.90;;;;;;4964363;28;20474;-86
2023/07/27 09:41:44;;;;;;;5.83;4.60;;;21.60;99.90;;;;;;4965458;28;20799;-86
2023/07/27 09:44:13;;;;;;;4.70;4.23;;;21.60;99.90;;;;;;4964802;28;20455;-85
2023/07/27 09:46:47;;;;;;;3.77;3.47;;;21.60;99.90;;;;;;4937264;28;20546;-85
2023/07/27 09:49:26;;;;;;;4.00;3.70;;;21.60;99.90;;;;;;4946710;28;20560;-85
2023/07/27 09:51:54;;;;;;;5.60;4.73;;;21.50;99.90;;;;;;4964375;28;20527;-83
2023/07/27 09:54:25;;;;;;;4.37;4.00;;;21.50;99.90;;;;;;4961713;28;20557;-83
2023/07/27 09:56:53;;;;;;;3.70;3.40;;;21.50;99.90;;;;;;4963786;28;20467;-83
2023/07/27 09:59:24;;;;;;;4.43;4.03;;;21.60;99.90;;;;;;4964815;28;20471;-84
2023/07/27 10:01:52;;;;;;;5.70;3.80;;;21.50;99.90;;;;;;4963695;28;20483;-83
2023/07/27 10:04:23;;;;;;;4.43;4.03;;;21.50;99.90;;;;;;4964500;28;20483;-82
2023/07/27 10:06:51;;;;;;;4.13;3.80;;;21.40;99.90;;;;;;4963765;28;20475;-83
2023/07/27 10:13:08;;;;;;;4.40;4.00;;;21.30;99.90;;;;;;4886701;28;20486;-86
2023/07/27 10:15:42;;;;;;;3.80;3.50;;;21.30;99.90;;;;;;4950162;28;20485;-83
2023/07/27 10:18:13;;;;;;;6.20;3.70;;;21.30;99.90;;;;;;4963602;28;20567;-86
2023/07/27 10:20:46;;;;;;;4.83;4.17;;;21.30;99.90;;;;;;4963262;28;20980;-85
2023/07/27 10:23:59;;;;;;;4.80;4.40;;;21.40;99.90;;;;;;4947545;28;20515;-85
2023/07/27 10:27:22;;;;;;;3.97;3.57;;;21.30;99.90;;;;;;4923307;28;20886;-86
2023/07/27 10:30:26;;;;;;;4.37;4.00;;;21.40;99.90;;;;;;4948356;28;20806;-86
2023/07/27 10:33:16;;;;;;;4.87;3.33;;;21.40;99.90;;;;;;4942755;28;20463;-86
2023/07/27 10:36:21;;;;;;;4.17;3.87;;;21.40;99.90;;;;;;4933656;28;20555;-86
2023/07/27 10:39:25;;;;;;;3.77;3.47;;;21.50;99.90;;;;;;4936760;28;20949;-84
2023/07/27 10:42:35;;;;;;;4.70;3.60;;;21.50;99.90;;;;;;4920447;28;20483;-83
2023/07/27 10:45:07;;;;;;;4.80;4.40;;;21.60;99.90;;;;;;4859605;29;20472;-84
2023/07/27 10:48:22;;;;;;;5.27;4.70;;;21.60;99.90;;;;;;4859347;29;20472;-84
2023/07/27 10:51:13;;;;;;;3.83;3.53;;;21.60;99.90;;;;;;4839524;29;20468;-84
2023/07/27 10:53:44;;;;;;;4.23;3.90;;;21.60;99.90;;;;;;4929682;23;20880;-83
2023/07/27 10:56:11;;;;;;;4.20;3.73;;;21.60;99.90;;;;;;4953528;29;20530;-83
2023/07/27 10:58:38;;;;;;;4.03;3.73;;;21.50;99.90;;;;;;4953975;29;20866;-85
2023/07/27 11:01:05;;;;;;;7.73;3.90;;;21.50;99.90;;;;;;4952648;29;20475;-84
2023/07/27 11:06:48;;;;;;;5.77;4.13;;;21.50;99.90;;;;;;4953377;29;20938;-84
2023/07/27 11:09:33;;;;;;;3.80;3.50;;;21.50;99.90;;;;;;4953411;29;20494;-83
2023/07/27 11:12:01;;;;;;;3.80;3.33;;;21.60;99.90;;;;;;4950449;28;20494;-85
2023/07/27 11:14:28;;;;;;;3.57;3.27;;;21.60;99.90;;;;;;4954032;29;20480;-83
2023/07/27 11:16:56;;;;;;;3.70;3.40;;;21.70;99.90;;;;;;4953584;28;20476;-84
2023/07/27 11:19:24;;;;;;;3.40;3.10;;;21.60;99.90;;;;;;4953691;29;20559;-84
2023/07/27 11:21:55;;;;;;;3.73;3.43;;;21.60;99.90;;;;;;4942759;29;20585;-84
2023/07/27 11:24:23;;;;;;;5.87;3.43;;;21.60;99.90;;;;;;4939341;28;20482;-83
2023/07/27 11:26:50;;;;;;;3.50;3.30;;;21.60;99.90;;;;;;4952333;28;21740;-85
2023/07/27 11:29:23;;;;;;;3.27;3.07;;;21.60;99.90;;;;;;4957056;28;20523;-84
2023/07/27 11:32:05;;;;;;;;;;;;;;;;;;;;;
2023/07/27 11:34:33;;;;;;;3.87;3.57;;;21.60;99.90;;;;;;4937219;28;20469;-84
2023/07/27 11:37:09;;;;;;;3.30;3.00;;;21.70;99.90;;;;;;4924849;29;20482;-85
2023/07/27 11:39:38;;;;;;;3.93;3.40;;;21.70;99.90;;;;;;4928003;29;20480;-84
2023/07/27 11:42:10;;;;;;;3.43;3.13;;;21.70;99.90;;;;;;4926639;29;20536;-84
2023/07/27 11:44:40;;;;;;;4.20;3.90;;;21.70;99.90;;;;;;4935291;29;20481;-85
2023/07/27 11:47:08;;;;;;;7.57;3.23;;;21.70;99.90;;;;;;4936004;29;20504;-84
2023/07/27 11:49:35;;;;;;;4.00;3.67;;;21.80;99.90;;;;;;4928985;29;20571;-84
2023/07/27 11:52:42;;;;;;;3.93;3.63;;;21.80;99.90;;;;;;4938465;29;20472;-84
2023/07/27 11:55:15;;;;;;;4.50;4.10;;;21.70;99.90;;;;;;4917359;29;20464;-85
2023/07/27 11:57:42;;;;;;;4.37;4.00;;;21.70;99.90;;;;;;4927035;29;20487;-85
2023/07/27 12:00:12;;;;;;;4.50;3.60;;;21.70;99.90;;;;;;4935915;29;20528;-84
2023/07/27 12:02:55;;;;;;;5.50;5.00;;;21.80;99.90;;;;;;4936524;29;20528;-85
2023/07/27 12:05:24;;;;;;;5.07;4.73;;;21.80;99.90;;;;;;4936420;29;20476;-84
2023/07/27 12:08:23;;;;;;;4.10;3.80;;;21.80;99.90;;;;;;4936582;29;20959;-84
2023/07/27 12:11:45;;;;;;;3.97;3.57;;;21.80;99.90;;;;;;4916267;29;20473;-85
2023/07/27 12:14:58;;;;;;;;;;;;;;;;;;;;;
2023/07/27 12:17:26;;;;;;;5.47;3.97;;;21.90;99.90;;;;;;4898168;29;20468;-86
2023/07/27 12:19:53;;;;;;;4.40;3.90;;;21.90;99.90;;;;;;4936743;29;20504;-86
2023/07/27 12:22:20;;;;;;;5.00;4.50;;;21.80;99.90;;;;;;4935760;29;20496;-85
2023/07/27 12:24:48;;;;;;;6.13;5.27;;;21.80;99.90;;;;;;4936064;29;20468;-84
2023/07/27 12:27:15;;;;;;;4.43;4.03;;;21.90;99.90;;;;;;4935337;29;20819;-85
2023/07/27 12:29:51;;;;;;;5.90;4.63;;;21.90;99.90;;;;;;4936193;29;20460;-85
2023/07/27 12:32:20;;;;;;;8.27;4.50;;;21.80;99.90;;;;;;4935604;29;20974;-86
2023/07/27 12:34:49;;;;;;;7.30;4.50;;;21.80;99.90;;;;;;4936548;29;20476;-85
2023/07/27 12:37:19;;;;;;;5.37;4.87;;;21.80;99.90;;;;;;4936233;29;20487;-85
2023/07/27 12:39:45;;;;;;;6.90;4.50;;;21.80;99.90;;;;;;4921229;29;20472;-85
2023/07/27 12:42:14;;;;;;;3.83;3.53;;;21.70;99.90;;;;;;4940128;29;20475;-86
2023/07/27 12:44:45;;;;;;;5.40;5.00;;;21.70;99.90;;;;;;4938823;29;20821;-86
2023/07/27 12:47:14;;;;;;;7.70;5.60;;;21.70;99.90;;;;;;4942586;29;20480;-84
2023/07/27 12:49:44;;;;;;;9.50;8.20;;;21.70;99.90;;;;;;4931500;29;20851;-84
2023/07/27 12:52:22;;;;;;;12.27;11.07;;;21.70;99.90;;;;;;4939671;29;20527;-86
2023/07/27 12:54:56;;;;;;;28.20;25.20;;;21.70;99.90;;;;;;4939213;29;20483;-86
2023/07/27 12:57:24;;;;;;;50.63;32.53;;;21.80;99.90;;;;;;4939555;29;20476;-85
2023/07/27 13:00:01;;;;;;;37.17;21.73;;;21.80;99.90;;;;;;4893212;29;20511;-85
2023/07/27 13:02:30;;;;;;;21.13;16.17;;;21.80;99.90;;;;;;4872301;29;20489;-85
2023/07/27 13:04:59;;;;;;;9.20;8.33;;;21.80;99.90;;;;;;4902417;29;20469;-85
2023/07/27 13:07:27;;;;;;;9.60;8.07;;;21.80;99.90;;;;;;4927715;29;20484;-86
2023/07/27 13:09:55;;;;;;;7.93;7.13;;;21.80;99.90;;;;;;4939797;29;20469;-85
2023/07/27 13:21:54;;;;;;;6.30;5.80;;;21.90;99.90;;;;;;4923600;29;20467;-85
2023/07/27 13:24:31;;;;;;;;;;;;;;;;;;;;;
2023/07/27 13:26:59;;;;;;;4.67;4.27;;;22.00;99.90;;;;;;4954852;29;20536;-86
2023/07/27 13:29:30;;;;;;;5.07;4.67;;;22.00;99.90;;;;;;4930815;29;20478;-86
2023/07/27 13:32:18;;;;;;;5.10;3.77;;;22.00;99.90;;;;;;4933384;29;20479;-86
2023/07/27 13:37:14;;;;;;;7.77;6.80;;;21.90;99.90;;;;;;4963967;28;20973;-86
2023/07/27 13:39:43;;;;;;;5.63;5.13;;;21.80;99.90;;;;;;4978008;28;20866;-86
2023/07/27 13:42:11;;;;;;;6.57;4.43;;;21.80;99.90;;;;;;4971999;28;20570;-85
2023/07/27 13:44:39;;;;;;;5.03;4.10;;;21.80;99.90;;;;;;4949379;28;20554;-85
2023/07/27 13:47:09;;;;;;;4.30;3.73;;;21.70;99.90;;;;;;4957284;28;20467;-86
2023/07/27 13:49:42;;;;;;;4.23;3.47;;;21.70;99.90;;;;;;4958824;28;20479;-87
2023/07/27 13:52:11;;;;;;;4.63;4.00;;;21.70;99.90;;;;;;4952602;28;20503;-87
2023/07/27 13:55:17;;;;;;;3.83;3.53;;;21.60;99.90;;;;;;4946972;28;20621;-86
2023/07/27 13:57:48;;;;;;;5.33;4.30;;;21.60;99.90;;;;;;4958676;29;20790;-86